createdAt,value
2019-01-05T00:00:24.886Z,6.70
2019-01-05T00:03:11.292Z,6.68
2019-01-05T00:06:08.052Z,6.70
2019-01-05T00:08:58.627Z,6.72
2019-01-05T00:11:47.812Z,6.74
2019-01-05T00:14:53.440Z,6.74
2019-01-05T00:17:47.550Z,6.75
2019-01-05T00:20:47.814Z,6.70
2019-01-05T00:23:45.543Z,6.70
2019-01-05T00:26:39.991Z,6.69
2019-01-05T00:29:29.888Z,6.69
2019-01-05T00:32:43.713Z,6.70
2019-01-05T00:36:00.433Z,6.73
2019-01-05T00:39:01.704Z,6.71
2019-01-05T00:42:02.896Z,6.67
2019-01-05T00:45:01.544Z,6.64
2019-01-05T00:47:53.867Z,6.66
2019-01-05T00:50:57.121Z,6.67
2019-01-05T00:53:46.867Z,6.69
2019-01-05T00:56:50.904Z,6.70
2019-01-05T00:59:57.848Z,6.71
2019-01-05T01:02:58.340Z,6.73
2019-01-05T01:05:47.868Z,6.72
2019-01-05T01:08:38.408Z,6.71
2019-01-05T01:11:27.846Z,6.72
2019-01-05T01:14:21.791Z,6.71
2019-01-05T01:17:21.780Z,6.73
2019-01-05T01:20:20.724Z,6.75
2019-01-05T01:23:10.897Z,6.76
2019-01-05T01:26:05.257Z,6.78
2019-01-05T01:28:57.343Z,6.79
2019-01-05T01:32:00.369Z,6.83
2019-01-05T01:35:00.334Z,6.86
2019-01-05T01:39:07.989Z,6.88
2019-01-05T01:41:59.574Z,6.93
2019-01-05T01:45:05.577Z,6.93
2019-01-05T01:48:11.255Z,6.93
2019-01-05T01:51:02.325Z,6.94
2019-01-05T01:53:51.531Z,6.90
2019-01-05T01:57:00.643Z,6.88
2019-01-05T02:00:08.715Z,6.89
2019-01-05T02:03:05.686Z,6.89
2019-01-05T02:06:01.617Z,6.89
2019-01-05T02:09:08.583Z,6.90
2019-01-05T02:12:08.935Z,6.92
2019-01-05T02:15:08.953Z,6.93
2019-01-05T02:18:16.495Z,6.91
2019-01-05T02:21:23.929Z,6.89
2019-01-05T02:25:14.637Z,6.86
2019-01-05T02:29:09.039Z,6.82
2019-01-05T02:33:13.387Z,6.78
2019-01-05T02:37:05.381Z,6.77
2019-01-05T02:40:56.686Z,6.77
2019-01-05T02:44:46.087Z,6.73
2019-01-05T02:48:44.085Z,6.72
2019-01-05T02:52:34.793Z,6.68
2019-01-05T02:56:33.107Z,6.67
2019-01-05T03:00:19.365Z,6.66
2019-01-05T03:04:16.962Z,6.63
2019-01-05T03:08:22.392Z,6.64
2019-01-05T03:12:23.815Z,6.64
2019-01-05T03:16:10.083Z,6.61
2019-01-05T03:20:04.936Z,6.57
2019-01-05T03:23:43.052Z,6.56
2019-01-05T03:27:56.544Z,6.56
2019-01-05T03:32:13.685Z,6.52
2019-01-05T03:36:00.545Z,6.50
2019-01-05T03:40:26.745Z,6.46
2019-01-05T03:44:11.566Z,6.44
2019-01-05T03:47:53.827Z,6.41
2019-01-05T03:51:50.068Z,6.36
2019-01-05T03:55:58.593Z,6.35
2019-01-05T03:59:51.414Z,6.31
2019-01-05T04:03:35.818Z,6.26
2019-01-05T04:07:30.726Z,6.16
2019-01-05T04:11:53.945Z,6.12
2019-01-05T04:15:50.384Z,6.09
2019-01-05T04:20:10.224Z,6.06
2019-01-05T04:23:55.928Z,6.04
2019-01-05T04:28:08.365Z,6.01
2019-01-05T04:32:05.949Z,6.01
2019-01-05T04:36:11.132Z,5.97
2019-01-05T04:39:51.316Z,5.95
2019-01-05T04:44:03.488Z,5.91
2019-01-05T04:48:04.684Z,5.87
2019-01-05T04:51:55.088Z,5.83
2019-01-05T04:55:41.068Z,5.81
2019-01-05T04:59:51.379Z,5.79
2019-01-05T05:03:33.820Z,5.77
2019-01-05T05:07:44.166Z,5.73
2019-01-05T05:11:45.991Z,5.69
2019-01-05T05:15:48.040Z,5.65
2019-01-05T05:19:36.646Z,5.61
2019-01-05T05:23:38.236Z,5.56
2019-01-05T05:27:12.005Z,5.51
2019-01-05T05:31:08.234Z,5.47
2019-01-05T05:35:05.139Z,5.44
2019-01-05T05:38:40.917Z,5.42
2019-01-05T05:42:21.330Z,5.41
2019-01-05T05:46:12.562Z,5.39
2019-01-05T05:50:06.427Z,5.38
2019-01-05T05:53:55.541Z,5.34
2019-01-05T05:57:37.504Z,5.32
2019-01-05T06:02:06.831Z,5.30
2019-01-05T06:06:23.614Z,5.32
2019-01-05T06:10:30.580Z,5.28
2019-01-05T06:14:29.150Z,5.26
2019-01-05T06:18:14.623Z,5.24
2019-01-05T06:22:34.250Z,5.22
2019-01-05T06:26:54.556Z,5.15
2019-01-05T06:30:43.589Z,5.10
2019-01-05T06:34:34.857Z,5.06
2019-01-05T06:38:40.869Z,5.01
2019-01-05T06:42:56.086Z,5.01
2019-01-05T06:47:17.977Z,5.01
2019-01-05T06:50:50.656Z,5.00
2019-01-05T06:54:37.737Z,5.00
2019-01-05T06:58:35.919Z,5.00
2019-01-05T07:02:53.048Z,5.00
2019-01-05T07:06:47.421Z,5.00
2019-01-05T07:10:56.693Z,4.98
2019-01-05T07:14:42.469Z,4.96
2019-01-05T07:18:28.803Z,4.97
2019-01-05T07:22:40.255Z,4.96
2019-01-05T07:26:42.954Z,4.94
2019-01-05T07:30:33.364Z,4.94
2019-01-05T07:34:21.549Z,4.98
2019-01-05T07:38:39.350Z,4.99
2019-01-05T07:42:32.663Z,4.98
2019-01-05T07:46:30.887Z,4.96
2019-01-05T07:50:41.303Z,4.96
2019-01-05T07:54:55.166Z,4.96
2019-01-05T07:58:42.088Z,4.92
2019-01-05T08:02:36.177Z,4.88
2019-01-05T08:06:25.129Z,4.87
2019-01-05T08:10:02.072Z,4.89
2019-01-05T08:13:38.116Z,4.91
2019-01-05T08:17:19.009Z,4.92
2019-01-05T08:21:02.728Z,4.95
2019-01-05T08:25:02.375Z,5.00
2019-01-05T08:29:00.417Z,4.96
2019-01-05T08:32:55.965Z,4.98
2019-01-05T08:36:54.707Z,4.93
2019-01-05T08:40:42.951Z,4.93
2019-01-05T08:44:29.818Z,4.94
2019-01-05T08:48:14.874Z,4.99
2019-01-05T08:52:29.678Z,5.01
2019-01-05T08:56:32.049Z,5.02
2019-01-05T09:01:03.785Z,5.05
2019-01-05T09:05:26.536Z,5.11
2019-01-05T09:09:17.729Z,5.17
2019-01-05T09:13:22.497Z,5.18
2019-01-05T09:17:26.593Z,5.16
2019-01-05T09:21:16.545Z,5.18
2019-01-05T09:25:27.359Z,5.22
2019-01-05T09:29:31.876Z,5.24
2019-01-05T09:33:21.242Z,5.25
2019-01-05T09:37:13.747Z,5.30
2019-01-05T09:41:08.409Z,5.32
2019-01-05T09:45:15.922Z,5.36
2019-01-05T09:49:18.876Z,5.40
2019-01-05T09:53:26.160Z,5.40
2019-01-05T09:57:33.779Z,5.40
2019-01-05T10:01:46.172Z,5.44
2019-01-05T10:05:35.600Z,5.48
2019-01-05T10:09:35.347Z,5.51
2019-01-05T10:13:23.384Z,5.50
2019-01-05T10:17:07.043Z,5.48
2019-01-05T10:21:21.320Z,5.52
2019-01-05T10:25:43.309Z,5.56
2019-01-05T10:29:20.403Z,5.61
2019-01-05T10:32:52.897Z,5.61
2019-01-05T10:37:17.185Z,5.59
2019-01-05T10:41:33.410Z,5.60
2019-01-05T10:45:23.339Z,5.58
2019-01-05T10:49:12.224Z,5.57
2019-01-05T10:53:08.918Z,5.58
2019-01-05T10:57:21.726Z,5.58
2019-01-05T11:00:58.339Z,5.55
2019-01-05T11:04:46.506Z,5.50
2019-01-05T11:08:50.587Z,5.48
2019-01-05T11:13:02.758Z,5.49
2019-01-05T11:16:53.216Z,5.49
2019-01-05T11:20:54.412Z,5.51
2019-01-05T11:24:32.832Z,5.54
2019-01-05T11:28:25.162Z,5.57
2019-01-05T11:32:16.798Z,5.59
2019-01-05T11:36:05.008Z,5.54
2019-01-05T11:40:15.913Z,5.51
2019-01-05T11:44:02.603Z,5.52
2019-01-05T11:47:59.079Z,5.53
2019-01-05T11:51:46.441Z,5.58
2019-01-05T11:55:51.794Z,5.59
2019-01-05T11:59:51.265Z,5.61
2019-01-05T12:03:36.292Z,5.59
2019-01-05T12:07:46.279Z,5.63
2019-01-05T12:11:55.505Z,5.65
2019-01-05T12:16:13.218Z,5.64
2019-01-05T12:20:34.676Z,5.67
2019-01-05T12:24:36.020Z,5.68
2019-01-05T12:28:35.907Z,5.67
2019-01-05T12:32:18.333Z,5.69
2019-01-05T12:36:04.616Z,5.69
2019-01-05T12:39:57.504Z,5.69
2019-01-05T12:43:40.184Z,5.71
2019-01-05T12:47:30.845Z,5.72
2019-01-05T12:51:33.823Z,5.77
2019-01-05T12:55:16.843Z,5.77
2019-01-05T12:59:07.739Z,5.73
2019-01-05T13:03:06.851Z,5.71
2019-01-05T13:06:57.112Z,5.73
2019-01-05T13:11:01.590Z,5.73
2019-01-05T13:14:33.560Z,5.77
2019-01-05T13:18:19.817Z,5.77
2019-01-05T13:21:57.772Z,5.80
2019-01-05T13:25:57.877Z,5.82
2019-01-05T13:29:49.203Z,5.85
2019-01-05T13:33:55.546Z,5.85
2019-01-05T13:38:21.492Z,5.85
2019-01-05T13:42:23.718Z,5.87
2019-01-05T13:46:18.203Z,5.91
2019-01-05T13:50:07.841Z,5.98
2019-01-05T13:53:16.439Z,6.03
2019-01-05T13:56:08.510Z,6.05
2019-01-05T13:59:05.226Z,6.06
2019-01-05T14:02:04.655Z,6.10
2019-01-05T14:04:55.247Z,6.15
2019-01-05T14:08:06.011Z,6.23
2019-01-05T14:11:13.379Z,6.27
2019-01-05T14:14:04.241Z,6.25
2019-01-05T14:17:00.647Z,6.21
2019-01-05T14:19:49.727Z,6.23
2019-01-05T14:22:46.542Z,6.24
2019-01-05T14:25:37.159Z,6.25
2019-01-05T14:28:29.161Z,6.26
2019-01-05T14:31:20.754Z,6.28
2019-01-05T14:34:17.279Z,6.30
2019-01-05T14:37:09.413Z,6.33
2019-01-05T14:40:22.676Z,6.35
2019-01-05T14:43:13.655Z,6.35
2019-01-05T14:46:07.260Z,6.34
2019-01-05T14:49:13.601Z,6.35
2019-01-05T14:52:15.530Z,6.37
2019-01-05T14:55:09.215Z,6.38
2019-01-05T14:57:59.800Z,6.38
2019-01-05T15:00:52.788Z,6.42
2019-01-05T15:03:52.817Z,6.43
2019-01-05T15:06:55.703Z,6.44
2019-01-05T15:09:45.192Z,6.45
2019-01-05T15:12:38.006Z,6.45
2019-01-05T15:15:27.622Z,6.49
2019-01-05T15:18:30.683Z,6.50
2019-01-05T15:21:20.784Z,6.50
2019-01-05T15:24:25.092Z,6.51
2019-01-05T15:27:19.903Z,6.53
2019-01-05T15:30:02.721Z,6.52
2019-01-05T15:32:56.978Z,6.53
2019-01-05T15:35:54.828Z,6.56
2019-01-05T15:38:47.524Z,6.58
2019-01-05T15:41:40.013Z,6.63
2019-01-05T15:44:37.962Z,6.64
2019-01-05T15:47:32.046Z,6.65
2019-01-05T15:50:52.001Z,6.67
2019-01-05T15:53:47.191Z,6.69
2019-01-05T15:56:36.091Z,6.69
2019-01-05T15:59:39.156Z,6.69
2019-01-05T16:02:35.537Z,6.71
2019-01-05T16:05:34.314Z,6.73
2019-01-05T16:08:38.817Z,6.73
2019-01-05T16:11:39.747Z,6.75
2019-01-05T16:14:37.089Z,6.78
2019-01-05T16:17:50.995Z,6.77
2019-01-05T16:20:40.747Z,6.79
2019-01-05T16:23:35.469Z,6.78
2019-01-05T16:26:29.359Z,6.79
2019-01-05T16:29:42.361Z,6.81
2019-01-05T16:32:42.007Z,6.84
2019-01-05T16:35:40.544Z,6.86
2019-01-05T16:38:31.219Z,6.87
2019-01-05T16:41:47.436Z,6.89
2019-01-05T16:44:38.783Z,6.91
2019-01-05T16:47:35.848Z,6.92
2019-01-05T16:50:27.928Z,6.92
2019-01-05T16:53:21.919Z,6.93
2019-01-05T16:56:24.205Z,6.92
2019-01-05T16:59:12.744Z,6.95
2019-01-05T17:02:10.545Z,6.98
2019-01-05T17:05:11.647Z,7.00
2019-01-05T17:08:13.175Z,7.02
2019-01-05T17:11:10.057Z,7.03
2019-01-05T17:14:06.834Z,7.07
2019-01-05T17:16:59.386Z,7.10
2019-01-05T17:20:03.509Z,7.12
2019-01-05T17:23:00.330Z,7.14
2019-01-05T17:26:14.478Z,7.17
2019-01-05T17:29:24.234Z,7.20
2019-01-05T17:32:34.274Z,7.22
2019-01-05T17:35:26.808Z,7.23
2019-01-05T17:38:20.089Z,7.23
2019-01-05T17:41:19.091Z,7.24
2019-01-05T17:44:23.024Z,7.23
2019-01-05T17:47:19.987Z,7.22
2019-01-05T17:50:40.546Z,7.21
2019-01-05T17:53:47.439Z,7.23
2019-01-05T17:56:35.917Z,7.26
2019-01-05T17:59:45.109Z,7.28
2019-01-05T18:02:50.593Z,7.29
2019-01-05T18:05:43.001Z,7.30
2019-01-05T18:08:33.669Z,7.31
2019-01-05T18:11:24.748Z,7.32
2019-01-05T18:14:16.417Z,7.33
2019-01-05T18:17:09.960Z,7.34
2019-01-05T18:20:04.961Z,7.34
2019-01-05T18:23:12.928Z,7.34
2019-01-05T18:26:05.738Z,7.33
2019-01-05T18:28:57.042Z,7.32
2019-01-05T18:31:50.979Z,7.28
2019-01-05T18:34:39.621Z,7.28
2019-01-05T18:37:50.539Z,7.29
2019-01-05T18:40:39.892Z,7.30
2019-01-05T18:43:32.225Z,7.30
2019-01-05T18:46:31.044Z,7.29
2019-01-05T18:49:31.858Z,7.30
2019-01-05T18:52:25.443Z,7.28
2019-01-05T18:55:27.869Z,7.28
2019-01-05T18:58:17.451Z,7.30
2019-01-05T19:01:08.175Z,7.30
2019-01-05T19:04:12.186Z,7.31
2019-01-05T19:07:04.028Z,7.32
2019-01-05T19:10:06.545Z,7.32
2019-01-05T19:13:11.376Z,7.34
2019-01-05T19:16:02.636Z,7.37
2019-01-05T19:18:52.736Z,7.35
2019-01-05T19:22:04.456Z,7.41
2019-01-05T19:24:53.898Z,7.43
2019-01-05T19:27:56.517Z,7.44
2019-01-05T19:30:54.722Z,7.47
2019-01-05T19:33:44.133Z,7.48
2019-01-05T19:36:35.030Z,7.51
2019-01-05T19:39:26.250Z,7.52
2019-01-05T19:42:20.197Z,7.53
2019-01-05T19:45:09.766Z,7.55
2019-01-05T19:47:59.024Z,7.56
2019-01-05T19:50:48.463Z,7.56
2019-01-05T19:53:42.429Z,7.59
2019-01-05T19:56:31.723Z,7.59
2019-01-05T19:59:24.628Z,7.61
2019-01-05T20:02:27.639Z,7.63
2019-01-05T20:05:20.057Z,7.65
2019-01-05T20:08:09.660Z,7.65
2019-01-05T20:10:59.154Z,7.66
2019-01-05T20:14:08.091Z,7.67
2019-01-05T20:16:57.938Z,7.67
2019-01-05T20:19:58.108Z,7.68
2019-01-05T20:22:52.276Z,7.71
2019-01-05T20:26:02.901Z,7.73
2019-01-05T20:28:52.523Z,7.75
2019-01-05T20:31:58.281Z,7.77
2019-01-05T20:34:54.839Z,7.79
2019-01-05T20:37:52.808Z,7.77
2019-01-05T20:40:42.007Z,7.76
2019-01-05T20:43:32.801Z,7.76
2019-01-05T20:46:22.043Z,7.77
2019-01-05T20:49:27.878Z,7.77
2019-01-05T20:52:17.087Z,7.78
2019-01-05T20:55:20.114Z,7.76
2019-01-05T20:58:09.111Z,7.75
2019-01-05T21:00:58.856Z,7.74
2019-01-05T21:03:49.427Z,7.74
2019-01-05T21:06:38.914Z,7.74
2019-01-05T21:09:32.436Z,7.74
2019-01-05T21:12:21.869Z,7.76
2019-01-05T21:15:12.569Z,7.79
2019-01-05T21:18:06.552Z,7.81
2019-01-05T21:20:55.807Z,7.83
2019-01-05T21:23:45.768Z,7.83
2019-01-05T21:26:45.241Z,7.83
2019-01-05T21:29:36.121Z,7.84
2019-01-05T21:32:25.380Z,7.85
2019-01-05T21:35:34.562Z,7.87
2019-01-05T21:38:34.768Z,7.88
2019-01-05T21:41:23.935Z,7.88
2019-01-05T21:44:13.656Z,7.89
2019-01-05T21:47:03.518Z,7.91
2019-01-05T21:49:56.389Z,7.93
2019-01-05T21:53:02.307Z,7.94
2019-01-05T21:56:04.779Z,7.96
2019-01-05T21:59:01.559Z,7.97
2019-01-05T22:02:12.767Z,7.97
2019-01-05T22:05:03.450Z,7.97
2019-01-05T22:07:53.038Z,7.98
2019-01-05T22:10:42.372Z,8.00
2019-01-05T22:13:38.521Z,8.02
2019-01-05T22:16:32.505Z,8.03
2019-01-05T22:19:22.350Z,8.05
2019-01-05T22:22:15.875Z,8.06
2019-01-05T22:25:05.598Z,8.06
2019-01-05T22:27:56.033Z,8.09
2019-01-05T22:30:45.420Z,8.10
2019-01-05T22:33:47.953Z,8.10
2019-01-05T22:36:32.857Z,8.08
2019-01-05T22:39:42.886Z,8.06
2019-01-05T22:42:32.065Z,8.09
2019-01-05T22:45:21.406Z,8.11
2019-01-05T22:48:21.291Z,8.12
2019-01-05T22:51:17.799Z,8.14
2019-01-05T22:54:14.557Z,8.13
2019-01-05T22:57:10.061Z,8.12
2019-01-05T23:00:10.790Z,8.12
2019-01-05T23:03:04.429Z,8.13
2019-01-05T23:05:55.519Z,8.14
2019-01-05T23:09:00.993Z,8.17
2019-01-05T23:11:50.853Z,8.20
2019-01-05T23:14:51.104Z,8.22
2019-01-05T23:17:40.445Z,8.24
2019-01-05T23:20:29.457Z,8.26
2019-01-05T23:23:23.780Z,8.27
2019-01-05T23:26:12.735Z,8.28
2019-01-05T23:29:03.953Z,8.28
2019-01-05T23:31:53.955Z,8.28
2019-01-05T23:34:57.007Z,8.29
2019-01-05T23:38:05.908Z,8.29
2019-01-05T23:40:54.875Z,8.28
2019-01-05T23:43:54.735Z,8.28
2019-01-05T23:46:57.352Z,8.27
2019-01-05T23:49:49.223Z,8.29
2019-01-05T23:52:38.640Z,8.30
2019-01-05T23:55:38.896Z,8.30
2019-01-05T23:58:42.999Z,8.32
